createdAt,value
2018-09-27T00:01:46.494Z,96590.16
2018-09-27T00:04:12.876Z,96583.95
2018-09-27T00:06:39.207Z,96588.88
2018-09-27T00:09:05.604Z,96590.53
2018-09-27T00:11:31.981Z,96590.89
2018-09-27T00:13:58.356Z,96585.25
2018-09-27T00:16:24.704Z,96580.69
2018-09-27T00:18:51.051Z,96584.07
2018-09-27T00:21:17.443Z,96581.73
2018-09-27T00:23:43.773Z,96586.08
2018-09-27T00:26:10.183Z,96579.31
2018-09-27T00:28:36.532Z,96579.20
2018-09-27T00:31:02.941Z,96573.16
2018-09-27T00:33:29.280Z,96571.07
2018-09-27T00:35:55.649Z,96561.33
2018-09-27T00:38:22.036Z,96561.71
2018-09-27T00:40:48.419Z,96558.03
2018-09-27T00:43:14.786Z,96559.94
2018-09-27T00:45:41.180Z,96560.91
2018-09-27T00:48:07.558Z,96551.80
2018-09-27T00:50:33.900Z,96537.22
2018-09-27T00:53:00.810Z,96545.78
2018-09-27T00:55:27.204Z,96540.71
2018-09-27T00:57:53.604Z,96533.94
2018-09-27T01:00:19.998Z,96537.00
2018-09-27T01:02:46.332Z,96537.16
2018-09-27T01:05:12.729Z,96529.02
2018-09-27T01:07:39.164Z,96530.25
2018-09-27T01:10:05.536Z,96527.28
2018-09-27T01:12:31.956Z,96523.44
2018-09-27T01:14:58.390Z,96528.39
2018-09-27T01:17:24.748Z,96528.68
2018-09-27T01:19:51.107Z,96525.27
2018-09-27T01:22:17.511Z,96535.87
2018-09-27T01:24:43.852Z,96520.78
2018-09-27T01:27:10.187Z,96522.00
2018-09-27T01:29:36.580Z,96521.81
2018-09-27T01:32:02.909Z,96519.44
2018-09-27T01:34:29.345Z,96523.30
2018-09-27T01:36:55.724Z,96522.12
2018-09-27T01:39:22.172Z,96518.25
2018-09-27T01:41:48.522Z,96521.58
2018-09-27T01:44:14.904Z,96519.51
2018-09-27T01:46:41.297Z,96515.73
2018-09-27T01:49:07.640Z,96513.16
2018-09-27T01:51:33.988Z,96514.67
2018-09-27T01:54:00.323Z,96509.29
2018-09-27T01:56:26.657Z,96511.23
2018-09-27T01:58:52.991Z,96511.14
2018-09-27T02:01:19.381Z,96509.02
2018-09-27T02:03:45.782Z,96504.97
2018-09-27T02:06:12.142Z,96506.86
2018-09-27T02:08:38.677Z,96510.92
2018-09-27T02:11:05.000Z,96503.66
2018-09-27T02:13:31.379Z,96495.63
2018-09-27T02:15:57.769Z,96503.86
2018-09-27T02:18:24.123Z,96499.66
2018-09-27T02:20:50.531Z,96492.30
2018-09-27T02:23:16.956Z,96498.11
2018-09-27T02:25:43.372Z,96495.63
2018-09-27T02:28:09.724Z,96497.00
2018-09-27T02:30:36.053Z,96497.05
2018-09-27T02:33:02.398Z,96497.27
2018-09-27T02:35:28.735Z,96483.82
2018-09-27T02:37:55.063Z,96486.83
2018-09-27T02:40:21.390Z,96477.34
2018-09-27T02:42:47.745Z,96477.52
2018-09-27T02:45:14.129Z,96472.53
2018-09-27T02:47:40.480Z,96479.84
2018-09-27T02:50:06.816Z,96481.56
2018-09-27T02:52:33.150Z,96469.16
2018-09-27T02:54:59.667Z,96470.95
2018-09-27T02:57:26.011Z,96468.93
2018-09-27T02:59:52.378Z,96466.39
2018-09-27T03:02:18.853Z,96467.44
2018-09-27T03:04:45.286Z,96456.77
2018-09-27T03:07:11.646Z,96462.63
2018-09-27T03:09:37.961Z,96464.61
2018-09-27T03:12:04.290Z,96464.03
2018-09-27T03:14:30.616Z,96468.72
2018-09-27T03:16:57.116Z,96472.29
2018-09-27T03:19:23.501Z,96469.77
2018-09-27T03:21:49.904Z,96468.80
2018-09-27T03:24:16.239Z,96471.58
2018-09-27T03:26:42.665Z,96471.95
2018-09-27T03:29:09.088Z,96472.97
2018-09-27T03:31:35.416Z,96476.11
2018-09-27T03:34:01.765Z,96472.63
2018-09-27T03:36:28.141Z,96475.20
2018-09-27T03:38:54.495Z,96478.66
2018-09-27T03:41:20.868Z,96472.45
2018-09-27T03:43:47.203Z,96468.99
2018-09-27T03:46:13.560Z,96470.63
2018-09-27T03:48:39.942Z,96475.23
2018-09-27T03:51:06.320Z,96482.08
2018-09-27T03:53:32.648Z,96467.53
2018-09-27T03:55:59.015Z,96471.69
2018-09-27T03:58:25.357Z,96473.47
2018-09-27T04:00:51.674Z,96472.09
2018-09-27T04:03:18.112Z,96472.77
2018-09-27T04:05:44.473Z,96478.51
2018-09-27T04:08:10.834Z,96479.38
2018-09-27T04:10:37.241Z,96483.61
2018-09-27T04:13:03.599Z,96491.73
2018-09-27T04:15:29.983Z,96487.03
2018-09-27T04:17:56.316Z,96493.48
2018-09-27T04:20:22.672Z,96484.57
2018-09-27T04:22:49.081Z,96477.25
2018-09-27T04:25:15.419Z,96479.53
2018-09-27T04:27:41.757Z,96478.89
2018-09-27T04:30:08.095Z,96469.75
2018-09-27T04:32:34.415Z,96472.63
2018-09-27T04:35:00.762Z,96477.25
2018-09-27T04:37:27.170Z,96475.18
2018-09-27T04:39:53.574Z,96477.36
2018-09-27T04:42:19.951Z,96482.48
2018-09-27T04:44:46.302Z,96477.28
2018-09-27T04:47:12.661Z,96477.34
2018-09-27T04:49:39.000Z,96481.14
2018-09-27T04:52:05.325Z,96486.72
2018-09-27T04:54:31.701Z,96472.73
2018-09-27T04:56:58.029Z,96476.55
2018-09-27T04:59:24.455Z,96472.24
2018-09-27T05:01:50.895Z,96473.75
2018-09-27T05:04:17.229Z,96477.30
2018-09-27T05:06:43.660Z,96465.11
2018-09-27T05:09:10.025Z,96469.77
2018-09-27T05:11:36.468Z,96477.75
2018-09-27T05:14:02.831Z,96476.36
2018-09-27T05:16:29.222Z,96470.72
2018-09-27T05:18:55.594Z,96470.45
2018-09-27T05:21:22.008Z,96471.30
2018-09-27T05:23:48.374Z,96468.81
2018-09-27T05:26:14.761Z,96468.59
2018-09-27T05:28:41.609Z,96472.47
2018-09-27T05:31:07.933Z,96473.38
2018-09-27T05:33:34.301Z,96473.44
2018-09-27T05:36:00.666Z,96476.91
2018-09-27T05:38:27.058Z,96476.62
2018-09-27T05:40:53.462Z,96470.86
2018-09-27T05:43:19.824Z,96471.80
2018-09-27T05:45:46.195Z,96475.34
2018-09-27T05:48:12.657Z,96489.28
2018-09-27T05:50:39.021Z,96483.06
2018-09-27T05:53:05.424Z,96490.48
2018-09-27T05:55:31.781Z,96482.67
2018-09-27T05:57:58.162Z,96485.84
2018-09-27T06:00:24.548Z,96491.11
2018-09-27T06:02:51.047Z,96488.15
2018-09-27T06:05:17.404Z,96489.64
2018-09-27T06:07:43.807Z,96490.98
2018-09-27T06:10:10.248Z,96490.05
2018-09-27T06:12:36.600Z,96492.46
2018-09-27T06:15:02.958Z,96500.53
2018-09-27T06:17:29.314Z,96503.66
2018-09-27T06:19:55.780Z,96498.14
2018-09-27T06:22:22.074Z,96504.03
2018-09-27T06:24:48.462Z,96491.72
2018-09-27T06:27:14.797Z,96498.69
2018-09-27T06:29:41.133Z,96502.71
2018-09-27T06:32:07.505Z,96503.70
2018-09-27T06:34:33.856Z,96498.75
2018-09-27T06:37:00.204Z,96501.04
2018-09-27T06:39:26.536Z,96502.28
2018-09-27T06:41:52.966Z,96503.95
2018-09-27T06:44:19.371Z,96496.39
2018-09-27T06:46:45.828Z,96487.69
2018-09-27T06:49:12.196Z,96490.17
2018-09-27T06:51:38.654Z,96481.66
2018-09-27T06:54:05.125Z,96486.50
2018-09-27T06:56:31.507Z,96492.88
2018-09-27T06:58:57.914Z,96500.23
2018-09-27T07:01:24.299Z,96500.55
2018-09-27T07:03:50.730Z,96502.29
2018-09-27T07:06:17.189Z,96497.79
2018-09-27T07:08:43.579Z,96486.92
2018-09-27T07:11:09.927Z,96484.83
2018-09-27T07:13:36.364Z,96485.67
2018-09-27T07:16:02.757Z,96479.74
2018-09-27T07:18:29.258Z,96479.70
2018-09-27T07:20:55.676Z,96473.63
2018-09-27T07:23:22.115Z,96485.76
2018-09-27T07:25:48.517Z,96487.66
2018-09-27T07:28:14.941Z,96485.17
2018-09-27T07:30:41.325Z,96478.80
2018-09-27T07:33:07.754Z,96479.85
2018-09-27T07:35:34.304Z,96472.47
2018-09-27T07:38:00.838Z,96473.03
2018-09-27T07:40:27.472Z,96473.28
2018-09-27T07:42:53.908Z,96470.59
2018-09-27T07:45:20.297Z,96482.61
2018-09-27T07:47:46.835Z,96481.23
2018-09-27T07:50:13.316Z,96466.50
2018-09-27T07:52:39.729Z,96472.19
2018-09-27T07:55:06.121Z,96470.34
2018-09-27T07:57:32.590Z,96462.98
2018-09-27T07:59:58.984Z,96464.56
2018-09-27T08:02:25.386Z,96462.88
2018-09-27T08:04:51.899Z,96450.66
2018-09-27T08:07:18.313Z,96452.75
2018-09-27T08:09:44.725Z,96459.30
2018-09-27T08:12:11.117Z,96455.18
2018-09-27T08:14:37.540Z,96449.09
2018-09-27T08:17:03.936Z,96442.60
2018-09-27T08:19:30.290Z,96442.21
2018-09-27T08:21:56.679Z,96444.40
2018-09-27T08:24:23.079Z,96438.10
2018-09-27T08:26:49.508Z,96430.53
2018-09-27T08:29:15.868Z,96427.96
2018-09-27T08:31:42.306Z,96431.09
2018-09-27T08:34:08.664Z,96431.22
2018-09-27T08:36:35.012Z,96428.63
2018-09-27T08:39:01.423Z,96431.68
2018-09-27T08:41:27.832Z,96427.05
2018-09-27T08:43:54.233Z,96418.25
2018-09-27T08:46:20.703Z,96416.41
2018-09-27T08:48:47.096Z,96415.38
2018-09-27T08:51:13.424Z,96414.19
2018-09-27T08:53:39.794Z,96417.14
2018-09-27T08:56:06.368Z,96410.22
2018-09-27T08:58:32.707Z,96400.62
2018-09-27T09:00:59.098Z,96405.65
2018-09-27T09:03:25.517Z,96396.50
2018-09-27T09:05:51.812Z,96396.46
2018-09-27T09:08:18.204Z,96396.87
2018-09-27T09:10:44.611Z,96397.03
2018-09-27T09:13:10.976Z,96393.34
2018-09-27T09:15:37.483Z,96387.55
2018-09-27T09:18:03.769Z,96379.39
2018-09-27T09:20:30.203Z,96374.73
2018-09-27T09:22:57.095Z,96372.05
2018-09-27T09:25:23.724Z,96378.46
2018-09-27T09:27:50.083Z,96368.11
2018-09-27T09:30:16.478Z,96359.80
2018-09-27T09:32:42.929Z,96360.45
2018-09-27T09:35:09.324Z,96356.02
2018-09-27T09:37:35.791Z,96354.73
2018-09-27T09:40:02.221Z,96355.75
2018-09-27T09:42:28.738Z,96344.03
2018-09-27T09:44:55.219Z,96346.88
2018-09-27T09:47:21.694Z,96336.81
2018-09-27T09:49:48.211Z,96338.22
2018-09-27T09:52:14.643Z,96332.31
2018-09-27T09:54:41.018Z,96333.91
2018-09-27T09:57:07.409Z,96334.22
2018-09-27T09:59:33.828Z,96328.83
2018-09-27T10:02:00.248Z,96334.09
2018-09-27T10:04:26.630Z,96331.19
2018-09-27T10:06:53.111Z,96330.72
2018-09-27T10:09:19.580Z,96328.20
2018-09-27T10:11:45.984Z,96326.98
2018-09-27T10:14:12.435Z,96325.58
2018-09-27T10:16:38.860Z,96313.92
2018-09-27T10:19:05.248Z,96315.86
2018-09-27T10:21:31.704Z,96319.27
2018-09-27T10:23:58.079Z,96315.91
2018-09-27T10:26:24.492Z,96312.77
2018-09-27T10:28:50.863Z,96312.55
2018-09-27T10:31:17.353Z,96308.15
2018-09-27T10:33:43.735Z,96299.43
2018-09-27T10:36:10.139Z,96296.89
2018-09-27T10:38:36.536Z,96295.81
2018-09-27T10:41:02.964Z,96290.84
2018-09-27T10:43:29.368Z,96285.09
2018-09-27T10:45:55.802Z,96278.80
2018-09-27T10:48:22.314Z,96282.27
2018-09-27T10:50:48.764Z,96272.98
2018-09-27T10:53:15.206Z,96270.67
2018-09-27T10:55:41.641Z,96263.23
2018-09-27T10:58:08.095Z,96262.54
2018-09-27T11:00:34.480Z,96258.19
2018-09-27T11:03:00.936Z,96242.72
2018-09-27T11:05:27.352Z,96240.47
2018-09-27T11:07:55.575Z,96248.08
2018-09-27T11:10:24.095Z,96242.86
2018-09-27T11:12:53.345Z,96242.03
2018-09-27T11:15:21.396Z,96242.41
2018-09-27T11:17:49.497Z,96245.42
2018-09-27T11:20:16.728Z,96240.52
2018-09-27T11:22:43.875Z,96228.09
2018-09-27T11:25:10.485Z,96230.86
2018-09-27T11:27:36.920Z,96214.84
2018-09-27T11:30:05.887Z,96223.50
2018-09-27T11:35:03.832Z,96215.77
2018-09-27T11:37:31.292Z,96210.54
2018-09-27T11:39:57.728Z,96204.40
2018-09-27T11:42:24.277Z,96195.45
2018-09-27T11:44:50.793Z,96194.20
2018-09-27T11:47:17.498Z,96185.60
2018-09-27T11:49:44.840Z,96187.66
2018-09-27T11:52:11.154Z,96184.25
2018-09-27T11:54:37.530Z,96186.52
2018-09-27T11:57:03.907Z,96189.93
2018-09-27T11:59:30.357Z,96179.77
2018-09-27T12:01:56.784Z,96176.93
2018-09-27T12:04:25.835Z,96169.80
2018-09-27T12:06:52.450Z,96170.67
2018-09-27T12:09:18.882Z,96165.09
2018-09-27T12:11:45.353Z,96161.83
2018-09-27T12:14:11.889Z,96165.73
2018-09-27T12:16:38.276Z,96158.95
2018-09-27T12:19:04.676Z,96154.02
2018-09-27T12:21:31.185Z,96151.37
2018-09-27T12:23:58.112Z,96146.73
2018-09-27T12:26:24.648Z,96150.27
2018-09-27T12:28:51.093Z,96141.47
2018-09-27T12:31:17.641Z,96141.58
2018-09-27T12:33:46.633Z,96128.95
2018-09-27T12:36:13.032Z,96132.06
2018-09-27T12:38:39.501Z,96125.47
2018-09-27T12:41:06.049Z,96121.67
2018-09-27T12:43:32.461Z,96110.23
2018-09-27T12:45:59.044Z,96114.02
2018-09-27T12:48:25.616Z,96103.63
2018-09-27T12:50:51.966Z,96094.06
2018-09-27T12:53:18.517Z,96102.34
2018-09-27T12:55:44.891Z,96097.94
2018-09-27T12:58:11.391Z,96091.34
2018-09-27T13:00:37.931Z,96092.25
2018-09-27T13:03:04.459Z,96089.64
2018-09-27T13:05:30.976Z,96078.94
2018-09-27T13:07:57.384Z,96081.17
2018-09-27T13:10:23.989Z,96076.20
2018-09-27T13:12:50.695Z,96068.34
2018-09-27T13:15:17.070Z,96064.59
2018-09-27T13:17:43.635Z,96056.15
2018-09-27T13:20:10.321Z,96053.08
2018-09-27T13:22:36.690Z,96062.32
2018-09-27T13:25:03.111Z,96057.25
2018-09-27T13:27:29.694Z,96055.64
2018-09-27T13:29:57.084Z,96055.84
2018-09-27T13:32:23.432Z,96052.23
2018-09-27T13:34:49.823Z,96044.38
2018-09-27T13:37:16.178Z,96039.53
2018-09-27T13:39:42.632Z,96042.22
2018-09-27T13:42:09.105Z,96042.00
2018-09-27T13:44:35.541Z,96039.80
2018-09-27T13:47:01.888Z,96047.69
2018-09-27T13:49:28.298Z,96044.67
2018-09-27T13:51:54.797Z,96038.13
2018-09-27T13:54:21.347Z,96036.91
2018-09-27T13:56:47.836Z,96041.88
2018-09-27T13:59:14.341Z,96044.78
2018-09-27T14:01:40.898Z,96043.42
2018-09-27T14:04:07.264Z,96045.23
2018-09-27T14:06:33.689Z,96043.42
2018-09-27T14:09:00.243Z,96041.05
2018-09-27T14:11:26.674Z,96031.53
2018-09-27T14:13:53.155Z,96033.61
2018-09-27T14:16:19.642Z,96032.97
2018-09-27T14:18:46.097Z,96039.30
2018-09-27T14:21:12.475Z,96032.52
2018-09-27T14:23:38.873Z,96030.73
2018-09-27T14:26:05.375Z,96023.80
2018-09-27T14:28:31.837Z,96021.44
2018-09-27T14:30:58.301Z,96020.69
2018-09-27T14:33:24.672Z,96020.49
2018-09-27T14:35:51.061Z,96021.56
2018-09-27T14:38:17.433Z,96018.22
2018-09-27T14:40:43.791Z,96022.59
2018-09-27T14:43:10.174Z,96024.04
2018-09-27T14:45:36.663Z,96029.87
2018-09-27T14:48:03.095Z,96022.02
2018-09-27T14:50:29.609Z,96025.22
2018-09-27T14:52:56.038Z,96023.51
2018-09-27T14:55:22.429Z,96025.11
2018-09-27T14:57:48.925Z,96027.38
2018-09-27T15:00:15.438Z,96029.67
2018-09-27T15:02:41.836Z,96020.86
2018-09-27T15:05:08.243Z,96012.97
2018-09-27T15:07:34.735Z,96013.80
2018-09-27T15:10:01.298Z,96008.80
2018-09-27T15:12:28.583Z,96013.13
2018-09-27T15:14:54.989Z,96017.41
2018-09-27T15:17:21.478Z,96020.08
2018-09-27T15:19:47.853Z,96019.88
2018-09-27T15:22:14.225Z,96020.66
2018-09-27T15:24:40.637Z,96018.98
2018-09-27T15:27:07.094Z,96016.20
2018-09-27T15:29:33.539Z,96010.33
2018-09-27T15:32:00.051Z,96008.89
2018-09-27T15:34:26.471Z,96010.17
2018-09-27T15:36:52.878Z,96011.58
2018-09-27T15:39:19.312Z,96016.70
2018-09-27T15:41:45.825Z,96013.33
2018-09-27T15:44:12.259Z,96011.55
2018-09-27T15:46:39.002Z,96007.53
2018-09-27T15:49:05.450Z,96004.03
2018-09-27T15:51:31.873Z,96006.26
2018-09-27T15:53:58.244Z,96008.30
2018-09-27T15:56:24.858Z,95999.59
2018-09-27T15:58:51.261Z,96000.58
2018-09-27T16:01:17.724Z,96005.36
2018-09-27T16:03:44.248Z,96012.45
2018-09-27T16:06:10.769Z,96018.11
2018-09-27T16:08:37.159Z,96015.16
2018-09-27T16:11:03.635Z,96013.15
2018-09-27T16:13:30.067Z,96012.63
2018-09-27T16:15:56.666Z,96007.82
2018-09-27T16:18:23.126Z,96010.17
2018-09-27T16:20:49.588Z,95998.87
2018-09-27T16:23:16.131Z,96002.44
2018-09-27T16:25:42.527Z,96003.96
2018-09-27T16:28:09.006Z,96003.44
2018-09-27T16:30:35.436Z,95998.20
2018-09-27T16:33:01.859Z,96003.28
2018-09-27T16:35:28.363Z,95999.98
2018-09-27T16:37:54.780Z,96001.92
2018-09-27T16:40:21.281Z,95999.12
2018-09-27T16:42:47.741Z,95998.17
2018-09-27T16:45:14.200Z,95999.95
2018-09-27T16:47:40.663Z,96002.56
2018-09-27T16:50:07.048Z,96010.25
2018-09-27T16:52:33.497Z,96010.02
2018-09-27T16:54:59.889Z,96006.58
2018-09-27T16:57:26.365Z,96001.34
2018-09-27T16:59:52.772Z,96000.54
2018-09-27T17:02:19.186Z,96005.22
2018-09-27T17:04:45.637Z,96002.27
2018-09-27T17:07:12.110Z,96003.11
2018-09-27T17:09:38.512Z,96004.02
2018-09-27T17:12:05.015Z,96006.30
2018-09-27T17:14:31.514Z,96007.63
2018-09-27T17:16:57.936Z,96009.44
2018-09-27T17:19:24.387Z,96009.61
2018-09-27T17:21:50.788Z,96013.80
2018-09-27T17:24:17.261Z,96010.51
2018-09-27T17:26:43.906Z,96020.43
2018-09-27T17:29:10.354Z,96022.66
2018-09-27T17:31:36.827Z,96015.81
2018-09-27T17:34:03.204Z,96019.33
2018-09-27T17:36:29.662Z,96026.25
2018-09-27T17:38:56.076Z,96027.58
2018-09-27T17:41:22.508Z,96021.75
2018-09-27T17:43:48.920Z,96023.15
2018-09-27T17:46:15.299Z,96022.84
2018-09-27T17:48:42.376Z,96035.41
2018-09-27T17:51:08.811Z,96034.54
2018-09-27T17:53:35.178Z,96028.84
2018-09-27T17:56:01.649Z,96027.14
2018-09-27T17:58:28.024Z,96036.98
2018-09-27T18:00:54.367Z,96037.52
2018-09-27T18:03:20.708Z,96036.86
2018-09-27T18:05:47.230Z,96036.10
2018-09-27T18:08:13.663Z,96035.34
2018-09-27T18:10:40.103Z,96024.17
2018-09-27T18:13:06.469Z,96027.73
2018-09-27T18:15:32.868Z,96027.00
2018-09-27T18:17:59.333Z,96029.27
2018-09-27T18:20:25.725Z,96027.49
2018-09-27T18:22:52.160Z,96025.55
2018-09-27T18:25:18.534Z,96026.66
2018-09-27T18:27:44.947Z,96024.94
2018-09-27T18:30:11.458Z,96036.66
2018-09-27T18:32:37.891Z,96035.14
2018-09-27T18:35:04.388Z,96039.25
2018-09-27T18:37:30.922Z,96040.22
2018-09-27T18:39:57.349Z,96046.38
2018-09-27T18:42:23.762Z,96044.53
2018-09-27T18:44:50.151Z,96053.52
2018-09-27T18:47:16.625Z,96053.09
2018-09-27T18:49:43.074Z,96051.19
2018-09-27T18:52:10.229Z,96049.56
2018-09-27T18:54:36.593Z,96048.13
2018-09-27T18:57:02.965Z,96058.42
2018-09-27T18:59:29.367Z,96055.72
2018-09-27T19:01:55.771Z,96055.26
2018-09-27T19:04:22.116Z,96053.52
2018-09-27T19:06:48.493Z,96049.73
2018-09-27T19:09:14.828Z,96049.73
2018-09-27T19:11:41.266Z,96054.91
2018-09-27T19:14:07.612Z,96052.03
2018-09-27T19:16:34.014Z,96048.17
2018-09-27T19:19:00.380Z,96046.23
2018-09-27T19:21:26.819Z,96041.02
2018-09-27T19:23:53.248Z,96042.98
2018-09-27T19:26:19.610Z,96043.83
2018-09-27T19:28:46.018Z,96037.12
2018-09-27T19:31:12.421Z,96035.00
2018-09-27T19:33:38.788Z,96028.78
2018-09-27T19:36:05.120Z,96031.91
2018-09-27T19:38:31.503Z,96029.86
2018-09-27T19:40:57.841Z,96029.09
2018-09-27T19:43:24.281Z,96034.72
2018-09-27T19:45:50.677Z,96035.72
2018-09-27T19:48:17.165Z,96035.78
2018-09-27T19:50:43.537Z,96034.08
2018-09-27T19:53:09.882Z,96032.69
2018-09-27T19:55:36.222Z,96027.55
2018-09-27T19:58:02.587Z,96030.98
2018-09-27T20:00:28.947Z,96035.53
2018-09-27T20:02:55.324Z,96031.28
2018-09-27T20:05:21.660Z,96027.02
2018-09-27T20:07:47.992Z,96026.08
2018-09-27T20:10:14.375Z,96019.35
2018-09-27T20:12:40.682Z,96026.83
2018-09-27T20:15:07.017Z,96032.80
2018-09-27T20:17:33.351Z,96030.42
2018-09-27T20:19:59.676Z,96020.19
2018-09-27T20:22:26.118Z,96026.64
2018-09-27T20:24:52.486Z,96028.43
2018-09-27T20:27:18.844Z,96031.70
2018-09-27T20:29:45.188Z,96025.55
2018-09-27T20:32:11.568Z,96025.16
2018-09-27T20:34:38.002Z,96023.04
2018-09-27T20:37:04.319Z,96023.42
2018-09-27T20:39:30.695Z,96015.12
2018-09-27T20:41:57.032Z,96008.13
2018-09-27T20:44:23.421Z,96010.05
2018-09-27T20:46:49.798Z,96012.30
2018-09-27T20:49:16.127Z,96009.70
2018-09-27T20:51:42.464Z,96012.47
2018-09-27T20:54:08.797Z,96006.19
2018-09-27T20:56:35.135Z,96008.02
2018-09-27T20:59:01.529Z,96011.78
2018-09-27T21:01:27.926Z,96011.78
2018-09-27T21:03:54.256Z,96008.41
2018-09-27T21:06:20.624Z,96012.36
2018-09-27T21:08:47.020Z,96008.16
2018-09-27T21:11:13.402Z,96003.28
2018-09-27T21:13:39.888Z,96003.05
2018-09-27T21:16:06.222Z,96004.31
2018-09-27T21:18:32.543Z,95999.17
2018-09-27T21:20:58.876Z,95999.98
2018-09-27T21:23:25.207Z,96011.08
2018-09-27T21:25:51.563Z,96004.85
2018-09-27T21:28:17.908Z,96005.88
2018-09-27T21:30:44.257Z,96002.50
2018-09-27T21:33:10.588Z,96003.11
2018-09-27T21:35:36.928Z,95997.66
2018-09-27T21:38:03.360Z,95996.86
2018-09-27T21:40:29.720Z,96003.78
2018-09-27T21:42:56.053Z,96009.42
2018-09-27T21:45:22.385Z,96018.62
2018-09-27T21:47:48.718Z,96014.39
2018-09-27T21:50:15.145Z,96011.89
2018-09-27T21:52:41.476Z,96012.88
2018-09-27T21:55:07.834Z,96011.98
2018-09-27T21:57:34.240Z,96009.13
2018-09-27T22:00:00.610Z,96009.88
2018-09-27T22:02:26.960Z,96009.25
2018-09-27T22:04:53.375Z,96008.05
2018-09-27T22:07:19.740Z,96011.70
2018-09-27T22:09:46.104Z,96008.75
2018-09-27T22:12:12.450Z,96004.20
2018-09-27T22:14:38.795Z,96000.98
2018-09-27T22:17:05.153Z,96009.74
2018-09-27T22:19:31.505Z,96007.84
2018-09-27T22:21:57.875Z,96010.95
2018-09-27T22:24:24.268Z,96016.84
2018-09-27T22:26:50.625Z,96008.89
2018-09-27T22:29:16.979Z,96010.30
2018-09-27T22:31:43.338Z,96008.63
2018-09-27T22:34:09.719Z,96005.20
2018-09-27T22:36:36.160Z,96003.47
2018-09-27T22:39:02.514Z,96004.03
2018-09-27T22:41:28.929Z,96001.18
2018-09-27T22:43:55.260Z,95998.77
2018-09-27T22:46:21.633Z,95992.52
2018-09-27T22:48:48.037Z,95998.15
2018-09-27T22:51:14.455Z,95998.20
2018-09-27T22:53:40.810Z,95996.16
2018-09-27T22:56:07.217Z,95997.46
2018-09-27T22:58:33.599Z,95999.10
2018-09-27T23:00:59.954Z,95998.42
2018-09-27T23:03:26.333Z,95995.44
2018-09-27T23:05:52.695Z,95990.94
2018-09-27T23:08:19.130Z,95992.22
2018-09-27T23:10:45.520Z,95990.17
2018-09-27T23:13:11.892Z,95988.62
2018-09-27T23:15:38.320Z,95989.81
2018-09-27T23:18:04.729Z,95987.66
2018-09-27T23:20:31.078Z,95986.92
2018-09-27T23:22:57.514Z,95981.44
2018-09-27T23:25:23.876Z,95978.94
2018-09-27T23:27:50.406Z,95975.30
2018-09-27T23:30:16.771Z,95974.14
2018-09-27T23:32:43.470Z,95975.93
2018-09-27T23:35:09.873Z,95968.75
2018-09-27T23:37:36.243Z,95966.93
2018-09-27T23:40:02.665Z,95963.66
2018-09-27T23:42:29.004Z,95957.66
2018-09-27T23:44:55.400Z,95955.55
2018-09-27T23:47:21.784Z,95951.86
2018-09-27T23:49:48.117Z,95948.91
2018-09-27T23:52:14.510Z,95941.66
2018-09-27T23:54:40.861Z,95941.88
2018-09-27T23:57:07.263Z,95935.11
2018-09-27T23:59:33.653Z,95933.48
